Demir Kapija, Macedonia
Current Conditions -  °F | °C
As of 8:30 AM on Sunday 26 Oct 2014 (Local Time) from LWSK Reporting Station
Broken Clouds Broken Clouds  
Wind Chill: 34°   Ceiling: 8000
Heat Index: 39°   Visibility: 6mi
Dew Point: 34°   Wind: 7mph
Humidity: 81%   Direction: 30°NNE
Pressure: 30.27"   Gusts: NA
Location:  41.43°N, 22.26°E
Report Text: LWSK 260630Z 03006KT 9999 FEW050 BKN080 04/01 Q1025 NOSIG
Loading
Personal Weather Stations






























Interactive Weather Map
Tropical Storm Tracking
New forecast layout! Learn more

10-Day Weather Forecast

Advertisements
Track Severe Weather on mobile